Time;durP1;ratioP1;P1;durP2;ratioP2;P2;SDS_P1;SDS_P2;PMS_P1;PMS_P2;Temp;Humidity;BMP_temperature;BMP_pressure;BME280_temperature;BME280_humidity;BME280_pressure;Samples;Min_cycle;Max_cycle;Signal;HPM_P1;HPM_P2
2021/10/15 00:00:41;;;;;;;3.90;3.17;;;;;;;23.12;59.18;101353.86;1722278;82;21595;-56
2021/10/15 00:03:07;;;;;;;4.12;3.50;;;;;;;23.11;59.15;101353.59;1726037;81;21310;-55
2021/10/15 00:05:33;;;;;;;5.45;3.52;;;;;;;23.11;59.08;101358.59;1714737;81;21045;-56
2021/10/15 00:07:59;;;;;;;5.28;3.83;;;;;;;23.11;59.02;101357.77;1721809;81;21573;-56
2021/10/15 00:10:25;;;;;;;5.28;3.95;;;;;;;23.10;58.98;101354.73;1717163;82;21130;-56
2021/10/15 00:12:51;;;;;;;4.97;3.55;;;;;;;23.07;58.95;101355.38;1718136;81;20976;-56
2021/10/15 00:15:18;;;;;;;5.05;3.75;;;;;;;23.06;58.93;101357.91;1719680;81;21078;-56
2021/10/15 00:17:44;;;;;;;6.17;4.03;;;;;;;23.05;58.92;101363.20;1731334;81;21027;-53
2021/10/15 00:20:13;;;;;;;4.97;3.50;;;;;;;23.03;58.88;101351.61;1723247;81;21711;-55
2021/10/15 00:22:39;;;;;;;4.83;3.60;;;;;;;23.02;58.85;101355.52;1717556;81;21571;-55
2021/10/15 00:25:06;;;;;;;5.50;3.87;;;;;;;23.00;58.85;101359.99;1723197;82;20917;-56
2021/10/15 00:27:32;;;;;;;6.62;4.30;;;;;;;22.99;58.86;101353.39;1723305;82;21020;-54
2021/10/15 00:29:58;;;;;;;4.80;3.30;;;;;;;22.97;58.82;101345.95;1720597;81;21125;-55
2021/10/15 00:32:24;;;;;;;5.78;3.60;;;;;;;22.95;58.82;101351.02;1722740;81;21095;-56
2021/10/15 00:34:51;;;;;;;5.72;3.33;;;;;;;22.95;58.82;101349.06;1727173;81;21489;-56
2021/10/15 00:37:19;;;;;;;4.20;2.87;;;;;;;22.96;58.88;101349.29;1722351;80;21094;-55
2021/10/15 00:39:46;;;;;;;4.40;3.00;;;;;;;22.98;58.95;101352.58;1728708;81;22147;-55
2021/10/15 00:42:12;;;;;;;4.92;3.33;;;;;;;22.98;59.04;101345.64;1716516;81;21549;-55
2021/10/15 00:44:38;;;;;;;5.05;3.67;;;;;;;22.98;59.04;101341.48;1722631;81;21084;-55
2021/10/15 00:47:04;;;;;;;4.53;3.33;;;;;;;22.98;59.01;101344.25;1722417;81;21129;-56
2021/10/15 00:49:30;;;;;;;4.75;3.37;;;;;;;22.99;59.00;101349.23;1721242;81;21148;-56
2021/10/15 00:51:56;;;;;;;6.08;4.10;;;;;;;22.98;58.93;101348.41;1725420;81;22668;-55
2021/10/15 00:54:22;;;;;;;4.80;3.40;;;;;;;22.99;58.89;101346.45;1725097;81;21106;-55
2021/10/15 00:56:48;;;;;;;5.25;3.50;;;;;;;22.98;58.83;101353.14;1721376;81;21624;-53
2021/10/15 00:59:14;;;;;;;4.03;3.30;;;;;;;22.96;58.78;101350.67;1720738;81;20971;-55
2021/10/15 01:01:41;;;;;;;4.08;3.20;;;;;;;22.95;58.74;101343.52;1727786;82;21630;-54
2021/10/15 01:04:07;;;;;;;4.95;3.40;;;;;;;22.96;58.71;101354.84;1712792;82;21293;-55
2021/10/15 01:06:34;;;;;;;4.25;3.27;;;;;;;22.94;58.67;101350.20;1727171;81;21485;-55
2021/10/15 01:09:00;;;;;;;3.90;2.98;;;;;;;22.92;58.63;101351.63;1724720;81;21139;-55
2021/10/15 01:11:26;;;;;;;5.35;3.47;;;;;;;22.89;58.62;101344.78;1717545;81;21015;-56
2021/10/15 01:13:53;;;;;;;4.40;3.30;;;;;;;22.89;58.60;101353.67;1724147;81;21114;-55
2021/10/15 01:16:26;;;;;;;5.30;3.47;;;;;;;22.87;58.58;101346.25;1725418;81;21248;-54
2021/10/15 01:18:52;;;;;;;6.30;3.52;;;;;;;22.86;58.58;101354.32;1719516;82;21122;-56
2021/10/15 01:21:18;;;;;;;4.60;3.33;;;;;;;22.84;58.55;101356.02;1696554;82;20924;-56
2021/10/15 01:23:44;;;;;;;4.03;3.00;;;;;;;22.82;58.54;101349.16;1721372;82;21060;-52
2021/10/15 01:26:10;;;;;;;4.37;3.10;;;;;;;22.80;58.54;101347.27;1721474;81;21725;-55
2021/10/15 01:28:37;;;;;;;3.92;3.02;;;;;;;22.81;58.53;101343.36;1719433;81;21273;-55
2021/10/15 01:31:03;;;;;;;4.42;3.05;;;;;;;22.81;58.60;101341.41;1721053;81;21598;-52
2021/10/15 01:33:29;;;;;;;4.55;3.00;;;;;;;22.85;58.73;101342.96;1715026;81;21134;-53
2021/10/15 01:35:55;;;;;;;3.90;3.02;;;;;;;22.85;58.79;101338.80;1710047;81;21162;-54
2021/10/15 01:38:21;;;;;;;3.95;3.00;;;;;;;22.85;58.81;101336.03;1723339;81;20888;-55
2021/10/15 01:40:47;;;;;;;3.75;2.98;;;;;;;22.85;58.81;101337.41;1717866;81;21336;-54
2021/10/15 01:43:22;;;;;;;4.22;2.90;;;;;;;22.85;58.76;101338.80;1713815;81;21732;-54
2021/10/15 01:45:48;;;;;;;4.83;2.98;;;;;;;22.86;58.72;101334.33;1719277;82;21169;-54
2021/10/15 01:48:14;;;;;;;6.83;3.00;;;;;;;22.85;58.66;101337.41;1714453;81;22418;-54
2021/10/15 01:50:40;;;;;;;3.72;2.72;;;;;;;22.85;58.60;101337.41;1718893;81;20967;-55
2021/10/15 01:53:06;;;;;;;4.37;3.30;;;;;;;22.84;58.57;101338.55;1720201;81;21508;-53
2021/10/15 01:55:32;;;;;;;3.90;3.00;;;;;;;22.84;58.50;101342.70;1722875;81;21075;-52
2021/10/15 01:57:58;;;;;;;4.75;2.95;;;;;;;22.82;58.49;101338.89;1721734;81;21025;-55
2021/10/15 02:00:24;;;;;;;3.52;2.83;;;;;;;22.82;58.45;101329.73;1728739;81;21610;-54
2021/10/15 02:02:50;;;;;;;4.60;3.30;;;;;;;22.80;58.40;101327.28;1717390;81;20949;-48
2021/10/15 02:05:17;;;;;;;3.70;2.95;;;;;;;22.79;58.38;101332.56;1729572;81;21299;-51
2021/10/15 02:07:43;;;;;;;4.83;3.12;;;;;;;22.76;58.37;101339.59;1720877;81;21160;-54
2021/10/15 02:10:10;;;;;;;4.20;3.10;;;;;;;22.75;58.36;101330.19;1723378;81;21502;-54
2021/10/15 02:12:36;;;;;;;4.53;3.12;;;;;;;22.74;58.33;101334.13;1712990;82;21086;-51
2021/10/15 02:15:04;;;;;;;3.58;3.00;;;;;;;22.72;58.32;101336.38;1725028;82;21544;-54
2021/10/15 02:17:31;;;;;;;4.22;3.15;;;;;;;22.70;58.34;101336.69;1724288;81;21542;-55
2021/10/15 02:19:57;;;;;;;5.40;3.10;;;;;;;22.68;58.33;101333.97;1720025;81;21184;-54
2021/10/15 02:22:23;;;;;;;4.05;3.10;;;;;;;22.66;58.32;101330.11;1726383;81;21062;-55
2021/10/15 02:24:49;;;;;;;4.60;2.75;;;;;;;22.64;58.33;101320.48;1713459;81;20884;-54
2021/10/15 02:27:15;;;;;;;3.40;2.70;;;;;;;22.63;58.32;101321.62;1710119;82;21131;-55
2021/10/15 02:29:41;;;;;;;4.12;2.72;;;;;;;22.65;58.31;101322.13;1727405;81;21312;-54
2021/10/15 02:32:07;;;;;;;3.52;2.50;;;;;;;22.67;58.40;101325.39;1724327;81;21569;-54
2021/10/15 02:34:33;;;;;;;3.15;2.50;;;;;;;22.70;58.48;101323.41;1717439;81;21115;-56
2021/10/15 02:36:59;;;;;;;4.22;2.50;;;;;;;22.71;58.56;101321.69;1727332;81;21114;-53
2021/10/15 02:39:25;;;;;;;3.45;2.65;;;;;;;22.71;58.57;101333.34;1727031;81;20931;-55
2021/10/15 02:41:51;;;;;;;3.58;2.80;;;;;;;22.72;58.53;101330.83;1724951;81;21333;-54
2021/10/15 02:44:17;;;;;;;4.20;2.55;;;;;;;22.72;58.49;101330.83;1718290;81;21637;-54
2021/10/15 02:46:44;;;;;;;3.00;2.60;;;;;;;22.72;58.45;101331.66;1716523;81;21042;-54
2021/10/15 02:49:10;;;;;;;3.70;2.70;;;;;;;22.72;58.38;101325.28;1722224;81;22019;-55
2021/10/15 02:51:36;;;;;;;4.92;2.72;;;;;;;22.72;58.34;101334.43;1725690;81;21067;-54
2021/10/15 02:54:03;;;;;;;3.87;2.80;;;;;;;22.71;58.30;101320.87;1714810;81;21451;-54
2021/10/15 02:56:29;;;;;;;3.08;2.60;;;;;;;22.71;58.26;101322.25;1726382;81;21050;-52
2021/10/15 02:58:56;;;;;;;3.50;2.85;;;;;;;22.69;58.20;101323.16;1729369;81;21066;-49
2021/10/15 03:01:22;;;;;;;2.87;2.45;;;;;;;22.68;58.18;101314.55;1728323;81;21105;-53
2021/10/15 03:03:48;;;;;;;5.08;2.70;;;;;;;22.65;58.16;101320.17;1727848;81;21117;-54
2021/10/15 03:06:15;;;;;;;3.67;2.65;;;;;;;22.65;58.13;101311.86;1726003;81;21969;-53
2021/10/15 03:08:41;;;;;;;2.72;2.35;;;;;;;22.64;58.08;101307.44;1716829;81;21455;-54
2021/10/15 03:11:07;;;;;;;3.55;2.45;;;;;;;22.66;58.06;101315.45;1721095;81;20887;-53
2021/10/15 03:13:34;;;;;;;3.10;2.40;;;;;;;22.66;58.00;101313.47;1721180;81;21891;-54
2021/10/15 03:16:00;;;;;;;3.58;2.27;;;;;;;22.71;57.89;101310.59;1715422;82;21173;-54
2021/10/15 03:18:26;;;;;;;3.37;2.17;;;;;;;22.72;57.81;101317.78;1716787;81;21026;-53
2021/10/15 03:20:52;;;;;;;2.67;1.90;;;;;;;22.74;57.71;101313.31;1726946;81;21659;-54
2021/10/15 03:23:18;;;;;;;3.27;2.08;;;;;;;22.76;57.63;101311.84;1719034;82;20924;-54
2021/10/15 03:25:44;;;;;;;2.33;1.72;;;;;;;22.78;57.51;101315.70;1715744;82;21514;-54
2021/10/15 03:28:10;;;;;;;2.65;1.80;;;;;;;22.81;57.45;101305.91;1726845;81;21057;-54
2021/10/15 03:30:36;;;;;;;2.27;1.50;;;;;;;22.81;57.36;101306.72;1712559;82;21329;-53
2021/10/15 03:33:03;;;;;;;2.45;1.55;;;;;;;22.82;57.32;101302.82;1743260;80;21126;-54
2021/10/15 03:35:29;;;;;;;1.98;1.60;;;;;;;22.84;57.26;101296.36;1749956;80;21020;-51
2021/10/15 03:37:55;;;;;;;1.72;1.30;;;;;;;22.86;57.21;101298.83;1722074;81;21030;-54
2021/10/15 03:40:22;;;;;;;2.47;1.42;;;;;;;22.87;57.17;101301.86;1750223;79;20898;-51
2021/10/15 03:42:48;;;;;;;2.12;1.50;;;;;;;22.89;57.12;101299.56;1734441;80;22152;-53
2021/10/15 03:45:14;;;;;;;2.35;1.55;;;;;;;22.91;57.11;101291.75;1756246;80;21087;-55
2021/10/15 03:47:40;;;;;;;1.80;1.40;;;;;;;22.92;57.04;101298.34;1749976;80;21687;-56
2021/10/15 03:50:08;;;;;;;1.82;1.50;;;;;;;22.95;57.02;101296.91;1751769;80;21171;-55
2021/10/15 03:52:34;;;;;;;3.87;1.35;;;;;;;22.97;57.01;101296.00;1732925;80;21019;-55
2021/10/15 03:55:00;;;;;;;3.62;1.40;;;;;;;22.98;56.98;101299.85;1707721;81;22135;-53
2021/10/15 03:57:26;;;;;;;1.60;1.10;;;;;;;23.00;56.94;101295.38;1715770;81;20971;-54
2021/10/15 03:59:52;;;;;;;1.62;1.17;;;;;;;23.04;56.94;101293.59;1718236;81;21150;-54
2021/10/15 04:02:19;;;;;;;1.37;1.10;;;;;;;23.09;56.98;101290.08;1723532;81;21011;-55
2021/10/15 04:04:45;;;;;;;2.20;1.60;;;;;;;23.13;57.09;101290.23;1735262;80;21414;-56
2021/10/15 04:07:11;;;;;;;1.80;1.17;;;;;;;23.18;57.15;101290.09;1728128;80;21081;-54
2021/10/15 04:09:37;;;;;;;2.52;1.62;;;;;;;23.21;57.18;101284.70;1693155;82;21059;-55
2021/10/15 04:12:04;;;;;;;3.15;1.67;;;;;;;23.26;57.15;101280.96;1727999;81;21185;-55
2021/10/15 04:14:31;;;;;;;11.12;3.70;;;;;;;23.30;57.09;101288.89;1703575;82;21159;-53
2021/10/15 04:16:57;;;;;;;6.25;2.30;;;;;;;23.34;57.00;101284.92;1754544;80;21118;-54
2021/10/15 04:19:23;;;;;;;2.17;1.67;;;;;;;23.37;56.91;101280.09;1749162;80;21264;-54
2021/10/15 04:21:49;;;;;;;12.33;4.65;;;;;;;23.39;56.82;101281.39;1748929;80;20906;-54
2021/10/15 04:24:15;;;;;;;11.00;3.52;;;;;;;23.42;56.76;101277.16;1744827;80;20928;-55
2021/10/15 04:26:41;;;;;;;3.45;1.60;;;;;;;23.44;56.69;101276.28;1729392;80;21618;-56
2021/10/15 04:29:07;;;;;;;2.08;1.15;;;;;;;23.44;56.61;101273.51;1731236;81;20937;-55
2021/10/15 04:31:33;;;;;;;8.10;1.77;;;;;;;23.45;56.57;101275.15;1742531;80;21448;-54
2021/10/15 04:33:59;;;;;;;2.08;1.45;;;;;;;23.47;56.50;101279.79;1710722;81;20908;-55
2021/10/15 04:36:25;;;;;;;1.80;1.22;;;;;;;23.48;56.47;101271.71;1723677;80;21072;-55
2021/10/15 04:38:51;;;;;;;2.30;1.25;;;;;;;23.48;56.45;101273.09;1734867;80;21075;-55
2021/10/15 04:41:17;;;;;;;2.58;1.72;;;;;;;23.47;56.39;101272.28;1736088;80;21008;-55
2021/10/15 04:43:43;;;;;;;3.40;2.08;;;;;;;23.47;56.34;101281.17;1710901;81;22136;-54
2021/10/15 04:46:10;;;;;;;6.92;3.08;;;;;;;23.46;56.26;101280.95;1748614;80;21110;-54
2021/10/15 04:48:36;;;;;;;47.55;21.55;;;;;;;23.44;56.21;101281.27;1735445;80;21101;-53
2021/10/15 04:51:02;;;;;;;4.80;3.10;;;;;;;23.44;56.16;101284.61;1708478;82;21065;-54
2021/10/15 04:53:28;;;;;;;2.98;2.42;;;;;;;23.42;56.06;101290.48;1711705;81;21441;-54
2021/10/15 04:55:54;;;;;;;66.02;24.63;;;;;;;23.41;56.01;101286.06;1706713;81;21267;-50
2021/10/15 04:58:20;;;;;;;5.75;2.92;;;;;;;23.43;56.01;101285.19;1700906;82;20943;-50
2021/10/15 05:00:46;;;;;;;58.80;21.87;;;;;;;23.44;55.99;101285.44;1747936;80;20935;-54
2021/10/15 05:03:12;;;;;;;10.40;5.42;;;;;;;23.45;56.00;101286.25;1740985;80;20976;-51
2021/10/15 05:05:42;;;;;;;23.32;8.45;;;;;;;23.45;55.97;101278.75;1708131;82;21685;-52
2021/10/15 05:08:11;;;;;;;5.12;2.42;;;;;;;23.45;55.99;101280.14;1711097;82;21025;-53
2021/10/15 05:10:41;;;;;;;2.67;1.90;;;;;;;23.47;56.01;101278.40;1723885;81;21183;-53
2021/10/15 05:13:07;;;;;;;2.98;2.02;;;;;;;23.46;56.02;101276.22;1732364;81;21103;-54
2021/10/15 05:15:33;;;;;;;2.65;2.00;;;;;;;23.46;56.01;101274.84;1721187;81;20971;-51
2021/10/15 05:17:59;;;;;;;4.78;3.25;;;;;;;23.46;56.02;101265.69;1716282;81;20914;-54
2021/10/15 05:20:25;;;;;;;5.37;2.70;;;;;;;23.45;56.04;101259.88;1714821;81;21309;-50
2021/10/15 05:22:52;;;;;;;4.45;2.40;;;;;;;23.45;56.06;101259.30;1715240;81;21034;-52
2021/10/15 05:25:18;;;;;;;12.82;4.78;;;;;;;23.45;56.08;101270.98;1715659;81;21147;-52
2021/10/15 05:27:44;;;;;;;3.87;2.02;;;;;;;23.48;56.10;101275.31;1726758;81;21114;-53
2021/10/15 05:30:11;;;;;;;4.17;2.15;;;;;;;23.51;56.19;101276.61;1692034;81;21648;-55
2021/10/15 05:32:37;;;;;;;4.17;2.52;;;;;;;23.52;56.32;101266.57;1736579;80;21540;-55
2021/10/15 05:35:05;;;;;;;3.25;1.85;;;;;;;23.54;56.40;101270.42;1750399;80;21136;-55
2021/10/15 05:37:31;;;;;;;2.85;2.42;;;;;;;23.55;56.43;101272.85;1743868;80;21608;-56
2021/10/15 05:39:57;;;;;;;3.15;2.22;;;;;;;23.58;56.41;101275.56;1741761;81;21160;-55
2021/10/15 05:42:23;;;;;;;2.98;2.40;;;;;;;23.59;56.34;101281.37;1726603;81;20904;-55
2021/10/15 05:44:49;;;;;;;4.50;3.12;;;;;;;23.59;56.29;101279.39;1741127;80;22063;-55
2021/10/15 05:47:15;;;;;;;3.85;2.45;;;;;;;23.60;56.22;101284.37;1752358;80;21130;-54
2021/10/15 05:49:41;;;;;;;4.22;2.55;;;;;;;23.60;56.19;101283.80;1711229;82;21520;-55
2021/10/15 05:54:44;;;;;;;2.75;2.30;;;;;;;23.59;56.11;101276.61;1744201;80;21157;-55
2021/10/15 05:59:41;;;;;;;4.22;2.80;;;;;;;23.55;56.05;101279.80;1752065;80;21086;-55
2021/10/15 06:02:08;;;;;;;4.03;2.58;;;;;;;23.54;56.03;101285.70;1742330;80;21011;-55
2021/10/15 06:15:32;;;;;;;10.08;4.00;;;;;;;23.45;56.04;101281.52;1736529;80;21092;-51
2021/10/15 06:17:57;;;;;;;9.18;3.92;;;;;;;23.45;56.02;101284.30;1710125;81;21050;-53
2021/10/15 06:20:23;;;;;;;8.58;2.75;;;;;;;23.43;56.04;101287.11;1731036;79;21077;-53
2021/10/15 06:22:50;;;;;;;3.62;2.60;;;;;;;23.42;56.06;101275.78;1716442;81;21254;-54
2021/10/15 06:25:16;;;;;;;4.50;2.83;;;;;;;23.41;56.08;101276.91;1740446;79;21065;-54
2021/10/15 06:27:42;;;;;;;3.33;2.62;;;;;;;23.40;56.09;101274.70;1740656;80;21019;-55
2021/10/15 06:30:10;;;;;;;3.47;2.70;;;;;;;23.38;56.11;101270.03;1744809;80;21112;-52
2021/10/15 06:32:36;;;;;;;4.22;2.75;;;;;;;23.37;56.12;101268.42;1745800;80;21158;-48
2021/10/15 06:35:03;;;;;;;142.28;43.05;;;;;;;23.37;56.15;101268.42;1744394;80;21738;-48
2021/10/15 06:37:29;;;;;;;164.10;38.42;;;;;;;23.36;56.15;101265.39;1731110;80;21121;-54
2021/10/15 06:39:55;;;;;;;111.77;32.23;;;;;;;23.36;56.16;101269.55;1739432;80;20980;-54
2021/10/15 06:42:21;;;;;;;37.42;10.75;;;;;;;23.36;56.16;101270.13;1758845;80;21053;-55
2021/10/15 06:44:47;;;;;;;13.68;4.87;;;;;;;23.33;56.19;101271.60;1747679;80;21716;-55
2021/10/15 06:47:13;;;;;;;8.08;2.70;;;;;;;23.33;56.21;101271.60;1756165;79;21231;-55
2021/10/15 06:49:39;;;;;;;4.47;2.70;;;;;;;23.33;56.20;101277.16;1752877;80;20991;-54
2021/10/15 06:52:06;;;;;;;4.97;2.77;;;;;;;23.36;56.32;101272.90;1739905;80;21129;-53
2021/10/15 06:54:32;;;;;;;7.87;3.05;;;;;;;23.38;56.42;101268.64;1748811;80;21140;-54
2021/10/15 06:56:58;;;;;;;4.85;3.05;;;;;;;23.38;56.51;101272.80;1758267;80;23062;-53
2021/10/15 06:59:24;;;;;;;4.47;3.20;;;;;;;23.40;56.55;101272.49;1706135;82;21340;-54
2021/10/15 07:01:50;;;;;;;4.55;3.10;;;;;;;23.40;56.55;101271.11;1715406;82;21634;-54
2021/10/15 07:04:17;;;;;;;5.37;3.22;;;;;;;23.41;56.52;101267.19;1753753;80;21117;-54
2021/10/15 07:06:43;;;;;;;6.05;3.12;;;;;;;23.41;56.47;101270.79;1737510;80;21142;-53
2021/10/15 07:09:09;;;;;;;5.10;2.85;;;;;;;23.41;56.42;101270.79;1709174;82;21019;-55
2021/10/15 07:11:38;;;;;;;6.25;3.20;;;;;;;23.41;56.37;101273.56;1710629;81;21220;-54
2021/10/15 07:14:02;;;;;;;3.52;2.92;;;;;;;23.40;56.35;101277.48;1714160;81;21087;-53
2021/10/15 07:16:29;;;;;;;3.25;2.67;;;;;;;23.40;56.30;101273.88;1755108;80;20979;-54
2021/10/15 07:18:55;;;;;;;4.20;2.83;;;;;;;23.39;56.28;101273.63;1714745;81;21355;-54
2021/10/15 07:21:21;;;;;;;4.67;2.87;;;;;;;23.38;56.25;101283.12;1701136;81;21587;-54
2021/10/15 07:23:47;;;;;;;4.42;3.00;;;;;;;23.36;56.24;101281.23;1710395;82;21184;-54
2021/10/15 07:26:13;;;;;;;5.08;3.08;;;;;;;23.34;56.23;101274.60;1705556;81;21241;-55
2021/10/15 07:28:39;;;;;;;4.67;2.80;;;;;;;23.33;56.21;101279.93;1712027;81;20906;-54
2021/10/15 07:31:05;;;;;;;3.27;2.80;;;;;;;23.32;56.21;101277.47;1725547;80;21074;-54
2021/10/15 07:33:31;;;;;;;4.42;2.95;;;;;;;23.30;56.21;101281.95;1723674;80;21021;-54
2021/10/15 07:35:57;;;;;;;3.72;2.85;;;;;;;23.28;56.22;101278.69;1723225;80;21249;-54
2021/10/15 07:38:23;;;;;;;3.83;2.90;;;;;;;23.27;56.20;101276.23;1728454;80;21087;-54
2021/10/15 07:40:49;;;;;;;3.20;2.27;;;;;;;23.24;56.24;101273.55;1727381;80;21099;-52
2021/10/15 07:43:16;;;;;;;3.50;2.40;;;;;;;23.22;56.21;101278.02;1699320;82;21607;-54
2021/10/15 07:45:42;;;;;;;3.65;2.67;;;;;;;23.21;56.23;101265.28;1722173;81;21116;-54
2021/10/15 07:48:08;;;;;;;3.85;2.50;;;;;;;23.19;56.25;101265.36;1721329;81;21336;-53
2021/10/15 07:50:34;;;;;;;3.90;2.67;;;;;;;23.17;56.25;101267.06;1736919;80;21616;-54
2021/10/15 07:53:00;;;;;;;3.98;2.65;;;;;;;23.17;56.26;101263.47;1714287;81;21135;-54
2021/10/15 07:55:26;;;;;;;3.65;2.80;;;;;;;23.15;56.26;101257.44;1713081;81;20921;-54
2021/10/15 07:57:52;;;;;;;4.22;3.02;;;;;;;23.14;56.24;101255.80;1713593;81;21067;-55
2021/10/15 08:00:18;;;;;;;4.72;2.72;;;;;;;23.12;56.26;101257.53;1711229;81;21223;-54
2021/10/15 08:02:44;;;;;;;3.27;2.67;;;;;;;23.10;56.23;101265.34;1745669;80;21043;-54
2021/10/15 08:05:16;;;;;;;5.72;2.80;;;;;;;23.10;56.25;101265.92;1728644;80;21076;-53
2021/10/15 08:07:41;;;;;;;4.37;3.10;;;;;;;23.08;56.25;101273.20;1739147;80;21582;-53
2021/10/15 08:10:10;;;;;;;4.08;2.77;;;;;;;23.07;56.23;101274.90;1750130;80;20878;-54
2021/10/15 08:12:37;;;;;;;4.22;2.80;;;;;;;23.06;56.24;101260.77;1743205;80;21493;-52
2021/10/15 08:15:09;;;;;;;3.12;2.83;;;;;;;23.05;56.22;101266.88;1730551;79;21038;-53
2021/10/15 08:17:35;;;;;;;3.27;2.40;;;;;;;23.04;56.20;101274.16;1696831;82;21185;-53
2021/10/15 08:20:02;;;;;;;4.25;3.08;;;;;;;23.03;56.18;101275.30;1737291;80;21857;-52
2021/10/15 08:22:28;;;;;;;3.47;2.77;;;;;;;23.01;56.17;101275.61;1738171;80;21004;-54
2021/10/15 08:24:54;;;;;;;5.15;3.20;;;;;;;23.01;56.16;101280.34;1747225;80;22117;-53
2021/10/15 08:27:21;;;;;;;3.80;2.77;;;;;;;23.00;56.14;101272.58;1739367;80;21072;-54
2021/10/15 08:29:47;;;;;;;4.40;3.15;;;;;;;22.99;56.11;101263.20;1742146;80;21091;-53
2021/10/15 08:32:13;;;;;;;3.80;2.75;;;;;;;22.98;56.11;101260.18;1712712;81;20921;-54
2021/10/15 08:34:39;;;;;;;4.05;2.95;;;;;;;22.97;56.11;101266.30;1711947;81;21181;-52
2021/10/15 08:37:05;;;;;;;3.95;3.00;;;;;;;22.97;56.07;101267.69;1703397;82;22060;-54
2021/10/15 08:39:31;;;;;;;3.90;2.92;;;;;;;22.96;56.07;101267.43;1711656;81;21151;-54
2021/10/15 08:41:58;;;;;;;3.90;2.87;;;;;;;22.96;56.06;101267.99;1701424;82;21029;-54
2021/10/15 08:44:34;;;;;;;4.47;3.10;;;;;;;22.95;56.05;101274.14;1746836;80;21082;-52
2021/10/15 08:47:00;;;;;;;4.08;3.08;;;;;;;22.93;56.03;101268.08;1719407;81;21037;-52
2021/10/15 08:49:27;;;;;;;3.85;2.75;;;;;;;22.92;56.01;101271.16;1740525;80;21265;-54
2021/10/15 08:51:53;;;;;;;6.35;3.12;;;;;;;22.91;56.01;101270.38;1719705;81;21071;-54
2021/10/15 08:54:19;;;;;;;5.00;3.20;;;;;;;22.92;56.01;101269.78;1713840;81;21041;-53
2021/10/15 08:56:45;;;;;;;4.35;3.00;;;;;;;22.91;55.97;101265.39;1717413;81;21071;-53
2021/10/15 08:59:15;;;;;;;4.60;3.20;;;;;;;22.89;55.96;101269.87;1714418;81;20965;-51
2021/10/15 09:01:46;;;;;;;5.33;3.05;;;;;;;22.90;55.95;101279.02;1719917;81;21329;-52
2021/10/15 09:04:16;;;;;;;4.33;3.10;;;;;;;22.88;55.93;101268.22;1710699;81;21172;-55
2021/10/15 09:06:41;;;;;;;4.15;3.00;;;;;;;22.88;55.94;101271.56;1720572;81;21110;-55
2021/10/15 09:09:09;;;;;;;2.85;2.40;;;;;;;22.87;55.92;101266.61;1703496;81;21471;-54
2021/10/15 09:11:47;;;;;;;4.10;2.92;;;;;;;22.87;55.91;101260.25;1688179;81;21023;-54
2021/10/15 09:14:22;;;;;;;4.20;2.92;;;;;;;22.86;55.91;101259.42;1731242;80;21013;-54
2021/10/15 09:17:09;;;;;;;4.58;3.17;;;;;;;22.85;55.88;101260.55;1724883;81;21127;-53
2021/10/15 09:19:44;;;;;;;5.12;3.67;;;;;;;22.84;55.85;101258.91;1706682;81;21077;-53
2021/10/15 09:22:21;;;;;;;5.60;4.30;;;;;;;22.85;55.84;101258.34;1715314;81;21197;-53
2021/10/15 09:24:57;;;;;;;5.90;4.25;;;;;;;22.82;55.79;101244.56;1709041;81;21775;-52
2021/10/15 09:27:29;;;;;;;5.58;4.45;;;;;;;22.81;55.71;101245.69;1728846;80;21087;-55
2021/10/15 09:30:10;;;;;;;5.47;4.12;;;;;;;22.80;55.65;101247.39;1731375;80;21225;-54
2021/10/15 09:32:41;;;;;;;6.15;4.20;;;;;;;22.79;55.61;101250.73;1749634;80;21486;-53
2021/10/15 09:35:09;;;;;;;5.83;3.95;;;;;;;22.78;55.55;101249.69;1752637;79;21087;-53
2021/10/15 09:37:41;;;;;;;5.10;4.10;;;;;;;22.78;55.52;101244.95;1740719;80;21135;-54
2021/10/15 09:40:15;;;;;;;5.60;3.92;;;;;;;22.77;55.50;101247.48;1741605;80;21721;-54
2021/10/15 09:42:44;;;;;;;5.62;4.05;;;;;;;22.76;55.47;101248.61;1741168;80;21047;-54
2021/10/15 09:45:16;;;;;;;6.50;3.62;;;;;;;22.76;55.44;101248.61;1743648;80;21376;-55
2021/10/15 09:47:56;;;;;;;5.12;4.28;;;;;;;22.75;55.43;101231.71;1722266;81;21146;-54
2021/10/15 09:50:25;;;;;;;4.47;3.77;;;;;;;22.75;55.40;101225.59;1723380;81;21138;-54
2021/10/15 09:52:55;;;;;;;6.85;4.05;;;;;;;22.75;55.38;101222.00;1699115;82;21251;-53
2021/10/15 09:55:37;;;;;;;4.20;3.37;;;;;;;22.73;55.37;101213.20;1739198;81;21824;-54
2021/10/15 09:58:13;;;;;;;4.97;3.92;;;;;;;22.74;55.34;101214.25;1745483;80;21070;-55
2021/10/15 10:00:39;;;;;;;5.28;3.50;;;;;;;22.73;55.32;101222.34;1748559;80;20992;-54
2021/10/15 10:03:06;;;;;;;5.80;4.00;;;;;;;22.72;55.29;101201.28;1746547;80;21071;-54
2021/10/15 10:05:32;;;;;;;5.08;4.12;;;;;;;22.72;55.29;101206.02;1712595;81;21110;-54
2021/10/15 10:07:58;;;;;;;4.58;3.65;;;;;;;22.72;55.26;101212.95;1733859;80;21088;-53
2021/10/15 10:10:28;;;;;;;4.67;3.52;;;;;;;22.71;55.25;101203.80;1735104;80;21099;-54
2021/10/15 10:12:54;;;;;;;5.22;3.65;;;;;;;22.70;55.22;101202.16;1743752;80;21118;-53
2021/10/15 10:15:23;;;;;;;5.50;3.67;;;;;;;22.70;55.20;101210.48;1733797;80;21078;-55
2021/10/15 10:18:24;;;;;;;5.55;3.87;;;;;;;22.70;55.20;101193.84;1744433;80;21867;-54
2021/10/15 10:21:03;;;;;;;5.90;3.80;;;;;;;22.68;55.18;101196.67;1757056;80;21120;-54
2021/10/15 10:23:41;;;;;;;4.60;3.50;;;;;;;22.67;55.18;101200.01;1693649;82;29052;-54
2021/10/15 10:26:10;;;;;;;5.12;3.87;;;;;;;22.66;55.18;101198.97;1701973;81;21900;-52
2021/10/15 10:28:37;;;;;;;5.10;3.47;;;;;;;22.65;55.19;101198.14;1744473;80;21125;-55
2021/10/15 10:31:06;;;;;;;4.67;3.50;;;;;;;22.64;55.19;101193.73;1715695;82;21158;-54
2021/10/15 10:33:54;;;;;;;3.87;3.12;;;;;;;22.63;55.21;101183.77;1703824;82;21482;-54
2021/10/15 10:36:20;;;;;;;6.30;3.72;;;;;;;22.64;55.23;101181.81;1717862;81;21483;-55
2021/10/15 10:38:46;;;;;;;5.22;3.35;;;;;;;22.64;55.23;101172.11;1714731;81;21087;-55
2021/10/15 10:41:24;;;;;;;4.37;3.47;;;;;;;22.63;55.24;101176.02;1710630;81;45731;-54
2021/10/15 10:43:56;;;;;;;4.25;3.45;;;;;;;22.62;55.25;101172.98;1710261;81;21355;-53
2021/10/15 10:46:26;;;;;;;4.80;3.85;;;;;;;22.62;55.27;101170.21;1710121;81;21524;-54
2021/10/15 10:48:58;;;;;;;4.78;3.58;;;;;;;22.62;55.29;101170.21;1711733;82;21072;-54
2021/10/15 10:51:28;;;;;;;5.20;3.65;;;;;;;22.61;55.30;101166.65;1742685;80;21080;-54
2021/10/15 10:54:06;;;;;;;6.08;3.65;;;;;;;22.61;55.30;101168.60;1713138;81;21023;-54
2021/10/15 10:56:52;;;;;;;4.72;3.80;;;;;;;22.60;55.34;101163.63;1718906;81;21098;-52
2021/10/15 10:59:29;;;;;;;5.35;3.40;;;;;;;22.59;55.36;101159.20;1706952;81;21480;-54
2021/10/15 11:02:01;;;;;;;5.72;3.45;;;;;;;22.58;55.35;101154.80;1716422;81;21103;-53
2021/10/15 11:04:40;;;;;;;6.72;4.00;;;;;;;22.58;55.34;101149.25;1737954;80;21023;-53
2021/10/15 11:07:08;;;;;;;5.45;3.30;;;;;;;22.58;55.34;101153.41;1700420;81;21126;-53
2021/10/15 11:10:05;;;;;;;5.53;3.90;;;;;;;22.58;55.32;101149.81;1727440;81;21295;-51
2021/10/15 11:12:36;;;;;;;4.65;3.37;;;;;;;22.57;55.34;101144.86;1706841;82;21639;-52
2021/10/15 11:15:11;;;;;;;3.92;3.12;;;;;;;22.56;55.34;101146.00;1713945;81;21510;-54
2021/10/15 11:17:48;;;;;;;4.30;3.27;;;;;;;22.56;55.34;101150.72;1701353;81;21074;-51
2021/10/15 11:20:24;;;;;;;4.80;3.50;;;;;;;22.55;55.35;101146.30;1746013;80;21028;-53
2021/10/15 11:23:09;;;;;;;4.33;3.62;;;;;;;22.54;55.34;101138.55;1722384;81;21108;-54
2021/10/15 11:25:41;;;;;;;5.10;3.50;;;;;;;22.54;55.33;101134.96;1706926;82;21106;-52
2021/10/15 11:28:14;;;;;;;6.00;3.10;;;;;;;22.54;55.34;101138.55;1712245;82;21014;-51
2021/10/15 11:30:43;;;;;;;3.62;2.95;;;;;;;22.53;55.35;101140.28;1705534;81;21686;-52
2021/10/15 11:33:13;;;;;;;7.47;3.20;;;;;;;22.53;55.35;101127.80;1733661;80;21076;-54
2021/10/15 11:35:42;;;;;;;4.00;3.57;;;;;;;22.53;55.35;101136.91;1733165;80;22052;-53
2021/10/15 11:38:19;;;;;;;6.12;3.47;;;;;;;22.52;55.34;101125.59;1742622;80;21043;-54
2021/10/15 11:40:45;;;;;;;4.42;3.00;;;;;;;22.52;55.35;101121.44;1714177;82;21047;-49
2021/10/15 11:43:22;;;;;;;4.95;3.27;;;;;;;22.53;55.35;101130.58;1736664;80;21139;-54